Time;durP1;ratioP1;P1;durP2;ratioP2;P2;SDS_P1;SDS_P2;PMS_P1;PMS_P2;Temp;Humidity;BMP_temperature;BMP_pressure;BME280_temperature;BME280_humidity;BME280_pressure;Samples;Min_cycle;Max_cycle;Signal;HPM_P1;HPM_P2
2024/01/05 00:01:33;;;;;;;22.95;6.85;;;;;;;-142.43;100.00;63430.59;5005630;28;20074;-82
2024/01/05 00:04:01;;;;;;;20.27;7.13;;;;;;;-142.43;100.00;63430.59;5005833;28;20085;-80
2024/01/05 00:06:29;;;;;;;21.55;6.80;;;;;;;-142.43;100.00;63430.59;5005586;28;20050;-82
2024/01/05 00:08:56;;;;;;;22.42;6.70;;;;;;;-142.43;100.00;63430.59;5006453;28;20046;-82
2024/01/05 00:11:22;;;;;;;15.55;6.47;;;;;;;-142.43;100.00;63430.59;5004131;28;20424;-82
2024/01/05 00:13:49;;;;;;;21.92;6.68;;;;;;;-142.43;100.00;63430.59;5000922;28;20097;-82
2024/01/05 00:16:19;;;;;;;17.88;6.50;;;;;;;-142.43;100.00;63430.59;5000023;28;20344;-81
2024/01/05 00:18:46;;;;;;;23.83;6.85;;;;;;;-142.43;100.00;63430.59;4997699;28;20121;-80
2024/01/05 00:21:21;;;;;;;21.25;7.65;;;;;;;-142.43;100.00;63430.59;4998112;28;20046;-80
2024/01/05 00:23:48;;;;;;;22.40;7.43;;;;;;;-142.43;100.00;63430.59;4998331;28;20057;-80
2024/01/05 00:26:15;;;;;;;23.63;7.07;;;;;;;-142.43;100.00;63430.59;4998335;28;20050;-80
2024/01/05 00:28:42;;;;;;;14.50;5.57;;;;;;;-142.43;100.00;63430.59;4997111;28;20141;-80
2024/01/05 00:31:09;;;;;;;15.18;5.95;;;;;;;-142.43;100.00;63430.59;4999565;28;20078;-80
2024/01/05 00:33:36;;;;;;;22.70;6.40;;;;;;;-142.43;100.00;63430.59;4997903;28;20539;-80
2024/01/05 00:36:04;;;;;;;28.88;5.95;;;;;;;-142.43;100.00;63430.59;4990263;28;20081;-80
2024/01/05 00:38:31;;;;;;;13.90;5.47;;;;;;;-142.43;100.00;63430.59;4998255;28;20042;-80
2024/01/05 00:40:58;;;;;;;18.85;6.05;;;;;;;-142.43;100.00;63430.59;4998388;28;20114;-80
2024/01/05 00:43:25;;;;;;;16.92;5.80;;;;;;;-142.43;100.00;63430.59;4998600;28;20142;-80
2024/01/05 00:45:53;;;;;;;22.05;6.22;;;;;;;-142.43;100.00;63430.59;5001005;28;20129;-82
2024/01/05 00:48:20;;;;;;;22.60;5.70;;;;;;;-142.43;100.00;63430.59;4998849;28;20406;-82
2024/01/05 00:50:47;;;;;;;16.25;6.22;;;;;;;-142.43;100.00;63430.59;4998988;28;20078;-82
2024/01/05 00:53:13;;;;;;;19.52;5.93;;;;;;;-142.43;100.00;63430.59;4994163;28;20417;-81
2024/01/05 00:55:53;;;;;;;25.17;5.68;;;;;;;-142.43;100.00;63430.59;4999658;28;20050;-80
2024/01/05 00:58:20;;;;;;;21.73;5.80;;;;;;;-142.43;100.00;63430.59;4998567;28;20050;-82
2024/01/05 01:00:47;;;;;;;19.10;5.05;;;;;;;-142.43;100.00;63430.59;4997436;28;20096;-79
2024/01/05 01:03:13;;;;;;;12.50;4.82;;;;;;;-142.43;100.00;63430.59;4999157;28;20128;-79
2024/01/05 01:05:40;;;;;;;14.70;4.95;;;;;;;-142.43;100.00;63430.59;4997634;28;20096;-80
2024/01/05 01:08:07;;;;;;;15.25;4.78;;;;;;;-142.43;100.00;63430.59;4997339;28;20110;-79
2024/01/05 01:10:33;;;;;;;16.42;4.97;;;;;;;-142.43;100.00;63430.59;4999297;28;20105;-80
2024/01/05 01:13:03;;;;;;;16.73;4.95;;;;;;;-142.43;100.00;63430.59;4997106;28;20042;-79
2024/01/05 01:15:30;;;;;;;16.52;4.80;;;;;;;-142.43;100.00;63430.59;4999162;28;20198;-81
2024/01/05 01:17:56;;;;;;;17.50;5.65;;;;;;;-142.43;100.00;63430.59;5000863;28;20086;-81
2024/01/05 01:20:23;;;;;;;15.07;4.65;;;;;;;-142.43;100.00;63430.59;4999814;28;20133;-81
2024/01/05 01:22:50;;;;;;;17.98;4.93;;;;;;;-142.43;100.00;63430.59;4999094;28;20054;-81
2024/01/05 01:25:17;;;;;;;16.80;5.07;;;;;;;-142.43;100.00;63430.59;5000748;28;20113;-81
2024/01/05 01:27:46;;;;;;;20.25;4.97;;;;;;;-142.43;100.00;63430.59;4999289;28;20055;-82
2024/01/05 01:30:14;;;;;;;15.15;4.60;;;;;;;-142.43;100.00;63430.59;5003856;28;20085;-82
2024/01/05 01:32:42;;;;;;;16.23;4.97;;;;;;;-142.43;100.00;63430.59;5009439;28;20561;-82
2024/01/05 01:35:09;;;;;;;21.65;5.05;;;;;;;-142.43;100.00;63430.59;5008756;28;20057;-81
2024/01/05 01:37:35;;;;;;;12.00;4.00;;;;;;;-142.43;100.00;63430.59;5014168;28;20050;-81
2024/01/05 01:40:04;;;;;;;23.27;5.53;;;;;;;-142.43;100.00;63430.59;5001908;28;20054;-81
2024/01/05 01:42:31;;;;;;;11.55;4.55;;;;;;;-142.43;100.00;63430.59;5007196;28;20049;-81
2024/01/05 01:44:58;;;;;;;19.30;4.55;;;;;;;-142.43;100.00;63430.59;5008417;28;20080;-80
2024/01/05 01:47:26;;;;;;;18.10;4.85;;;;;;;-142.43;100.00;63430.59;5006027;28;20069;-81
2024/01/05 01:49:53;;;;;;;14.15;4.50;;;;;;;-142.43;100.00;63430.59;5002227;28;20050;-80
2024/01/05 01:52:20;;;;;;;17.83;5.30;;;;;;;-142.43;100.00;63430.59;5002599;28;20106;-81
2024/01/05 01:54:47;;;;;;;16.95;4.78;;;;;;;-142.43;100.00;63430.59;5002626;28;20484;-81
2024/01/05 01:57:16;;;;;;;16.70;4.50;;;;;;;-142.43;100.00;63430.59;5001411;28;20057;-80
2024/01/05 01:59:43;;;;;;;12.32;4.70;;;;;;;-142.43;100.00;63430.59;5000233;28;20114;-80
2024/01/05 02:02:11;;;;;;;16.10;5.45;;;;;;;-142.43;100.00;63430.59;5001945;28;20097;-81
2024/01/05 02:04:40;;;;;;;12.70;4.53;;;;;;;-142.43;100.00;63430.59;5001943;28;20093;-80
2024/01/05 02:07:07;;;;;;;17.10;4.70;;;;;;;-142.43;100.00;63430.59;5001818;28;20055;-81
2024/01/05 02:09:34;;;;;;;16.95;4.63;;;;;;;-142.43;100.00;63430.59;5001160;28;20761;-81
2024/01/05 02:12:01;;;;;;;16.50;4.95;;;;;;;-142.43;100.00;63430.59;5002204;28;20058;-82
2024/01/05 02:14:27;;;;;;;10.02;4.32;;;;;;;-142.43;100.00;63430.59;5001615;28;20081;-80
2024/01/05 02:16:54;;;;;;;13.88;4.47;;;;;;;-142.43;100.00;63430.59;5001521;28;20078;-81
2024/01/05 02:19:21;;;;;;;15.77;4.70;;;;;;;-142.43;100.00;63430.59;5001169;28;20087;-80
2024/01/05 02:21:53;;;;;;;11.98;4.43;;;;;;;-142.43;100.00;63430.59;5001748;28;20445;-80
2024/01/05 02:24:21;;;;;;;12.45;4.55;;;;;;;-142.43;100.00;63430.59;4993425;28;20050;-80
2024/01/05 02:26:48;;;;;;;16.52;4.05;;;;;;;-142.43;100.00;63430.59;4995867;28;20085;-80
2024/01/05 02:29:21;;;;;;;11.55;4.40;;;;;;;-142.43;100.00;63430.59;4996299;28;20062;-81
2024/01/05 02:31:48;;;;;;;15.07;4.40;;;;;;;-142.43;100.00;63430.59;5000313;28;20042;-81
2024/01/05 02:34:15;;;;;;;16.77;4.72;;;;;;;-142.43;100.00;63430.59;5001726;28;20125;-81
2024/01/05 02:36:41;;;;;;;18.73;4.88;;;;;;;-142.43;100.00;63430.59;5001683;28;20082;-80
2024/01/05 02:39:08;;;;;;;12.80;4.50;;;;;;;-142.43;100.00;63430.59;5000459;28;20056;-80
2024/01/05 02:41:36;;;;;;;22.00;5.95;;;;;;;-142.43;100.00;63430.59;5000680;28;20077;-80
2024/01/05 02:44:02;;;;;;;17.90;5.22;;;;;;;-142.43;100.00;63430.59;4994383;28;20093;-80
2024/01/05 02:46:29;;;;;;;16.10;5.10;;;;;;;-142.43;100.00;63430.59;5008595;28;20051;-80
2024/01/05 02:48:56;;;;;;;19.30;5.22;;;;;;;-142.43;100.00;63430.59;5007572;28;20073;-80
2024/01/05 02:51:22;;;;;;;13.10;5.13;;;;;;;-142.43;100.00;63430.59;5006739;28;20085;-81
2024/01/05 02:53:49;;;;;;;13.65;4.97;;;;;;;-142.43;100.00;63430.59;5002678;28;20141;-81
2024/01/05 02:56:20;;;;;;;22.75;5.53;;;;;;;-142.43;100.00;63430.59;5002209;28;20046;-81
2024/01/05 02:58:48;;;;;;;15.13;5.53;;;;;;;-142.43;100.00;63430.59;5000879;28;20056;-81
2024/01/05 03:01:16;;;;;;;12.52;4.45;;;;;;;-142.43;100.00;63430.59;5001851;28;20137;-81
2024/01/05 03:03:43;;;;;;;16.23;5.10;;;;;;;-142.43;100.00;63430.59;5000718;28;20046;-81
2024/01/05 03:06:10;;;;;;;13.20;4.55;;;;;;;-142.43;100.00;63430.59;5001223;28;20122;-81
2024/01/05 03:08:37;;;;;;;14.93;5.10;;;;;;;-142.43;100.00;63430.59;4999942;28;20082;-80
2024/01/05 03:11:03;;;;;;;20.30;4.45;;;;;;;-142.43;100.00;63430.59;5000352;28;20161;-82
2024/01/05 03:13:30;;;;;;;14.57;5.65;;;;;;;-142.43;100.00;63430.59;5000380;28;20082;-80
2024/01/05 03:15:58;;;;;;;16.45;4.20;;;;;;;-142.43;100.00;63430.59;5000858;28;20450;-80
2024/01/05 03:18:24;;;;;;;12.38;4.15;;;;;;;-142.43;100.00;63430.59;4999921;28;20050;-79
2024/01/05 03:20:51;;;;;;;17.00;4.53;;;;;;;-142.43;100.00;63430.59;4998997;28;20121;-80
2024/01/05 03:23:18;;;;;;;13.48;4.07;;;;;;;-142.43;100.00;63430.59;4999435;28;20125;-80
2024/01/05 03:25:45;;;;;;;16.88;4.80;;;;;;;-142.43;100.00;63430.59;4999227;28;20628;-81
2024/01/05 03:28:12;;;;;;;18.73;4.47;;;;;;;-142.43;100.00;63430.59;4999497;28;20050;-80
2024/01/05 03:30:39;;;;;;;15.95;4.40;;;;;;;-142.43;100.00;63430.59;4998466;28;20561;-79
2024/01/05 03:33:07;;;;;;;14.18;4.47;;;;;;;-142.43;100.00;63430.59;5002560;28;20469;-80
2024/01/05 03:35:34;;;;;;;23.52;4.88;;;;;;;-142.43;100.00;63430.59;5000239;28;20055;-81
2024/01/05 03:38:00;;;;;;;14.10;5.35;;;;;;;-142.43;100.00;63430.59;4998276;28;20429;-79
2024/01/05 03:40:27;;;;;;;15.32;4.57;;;;;;;-142.43;100.00;63430.59;4998985;28;20088;-79
2024/01/05 03:42:54;;;;;;;15.00;4.40;;;;;;;-142.43;100.00;63430.59;4999333;28;20086;-80
2024/01/05 03:45:20;;;;;;;23.80;5.53;;;;;;;-142.43;100.00;63430.59;4998792;28;20129;-80
2024/01/05 03:47:47;;;;;;;14.80;4.60;;;;;;;-142.43;100.00;63430.59;4998827;28;20057;-80
2024/01/05 03:50:15;;;;;;;13.38;4.28;;;;;;;-142.43;100.00;63430.59;4998709;28;20479;-80
2024/01/05 03:52:42;;;;;;;10.73;4.20;;;;;;;-142.43;100.00;63430.59;4998931;28;20081;-80
2024/01/05 03:55:08;;;;;;;12.18;4.57;;;;;;;-142.43;100.00;63430.59;4999719;28;20552;-80
2024/01/05 03:57:35;;;;;;;12.88;4.10;;;;;;;-142.43;100.00;63430.59;5000532;28;20101;-80
2024/01/05 04:00:02;;;;;;;12.77;4.40;;;;;;;-142.43;100.00;63430.59;5003853;28;20049;-79
2024/01/05 04:02:29;;;;;;;14.93;4.60;;;;;;;-142.43;100.00;63430.59;4997375;28;20057;-79
2024/01/05 04:04:55;;;;;;;14.13;4.53;;;;;;;-142.43;100.00;63430.59;4999956;28;20146;-80
2024/01/05 04:07:23;;;;;;;16.45;4.68;;;;;;;-142.43;100.00;63430.59;4997359;28;20082;-79
2024/01/05 04:09:50;;;;;;;10.77;4.60;;;;;;;-142.43;100.00;63430.59;4996806;28;20468;-79
2024/01/05 04:12:17;;;;;;;14.65;5.03;;;;;;;-142.43;100.00;63430.59;4997213;28;20058;-79
2024/01/05 04:14:44;;;;;;;12.40;4.85;;;;;;;-142.43;100.00;63430.59;4998550;28;20050;-81
2024/01/05 04:17:12;;;;;;;12.75;4.65;;;;;;;-142.43;100.00;63430.59;4998762;28;20074;-81
2024/01/05 04:19:38;;;;;;;11.55;5.65;;;;;;;-142.43;100.00;63430.59;4998345;28;20051;-81
2024/01/05 04:22:06;;;;;;;15.13;4.95;;;;;;;-142.43;100.00;63430.59;4999516;28;20136;-81
2024/01/05 04:24:34;;;;;;;11.40;5.10;;;;;;;-142.43;100.00;63430.59;4998778;28;20065;-80
2024/01/05 04:27:01;;;;;;;17.63;5.07;;;;;;;-142.43;100.00;63430.59;4998475;28;20081;-81
2024/01/05 04:29:28;;;;;;;15.00;6.15;;;;;;;-142.43;100.00;63430.59;4998543;28;20078;-81
2024/01/05 04:31:54;;;;;;;15.38;4.28;;;;;;;-142.43;100.00;63430.59;4997804;28;20057;-80
2024/01/05 04:34:21;;;;;;;16.98;5.53;;;;;;;-142.43;100.00;63430.59;4997859;28;20096;-80
2024/01/05 04:36:48;;;;;;;11.20;4.72;;;;;;;-142.43;100.00;63430.59;4997659;28;20051;-80
2024/01/05 04:39:14;;;;;;;11.00;4.50;;;;;;;-142.43;100.00;63430.59;4998703;28;20093;-82
2024/01/05 04:41:43;;;;;;;10.13;4.60;;;;;;;-142.43;100.00;63430.59;4998548;28;20113;-81
2024/01/05 04:44:09;;;;;;;14.20;4.60;;;;;;;-142.43;100.00;63430.59;4999125;28;20073;-81
2024/01/05 04:46:36;;;;;;;10.55;4.22;;;;;;;-142.43;100.00;63430.59;4998356;28;20450;-81
2024/01/05 04:49:02;;;;;;;9.88;4.57;;;;;;;-142.43;100.00;63430.59;4995056;28;20137;-81
2024/01/05 04:51:30;;;;;;;13.38;4.80;;;;;;;-142.43;100.00;63430.59;4996064;28;20429;-81
2024/01/05 04:53:56;;;;;;;15.75;4.43;;;;;;;-142.43;100.00;63430.59;4999614;28;20122;-81
2024/01/05 04:56:23;;;;;;;20.60;5.78;;;;;;;-142.43;100.00;63430.59;5008794;28;20059;-81
2024/01/05 04:58:51;;;;;;;14.90;5.68;;;;;;;-142.43;100.00;63430.59;5009181;28;20057;-81
2024/01/05 05:01:18;;;;;;;11.90;4.20;;;;;;;-142.43;100.00;63430.59;5009644;28;20074;-81
2024/01/05 05:03:45;;;;;;;8.48;4.40;;;;;;;-142.43;100.00;63430.59;5009089;28;20073;-80
2024/01/05 05:06:12;;;;;;;10.63;4.00;;;;;;;-142.43;100.00;63430.59;5006198;28;20062;-82
2024/01/05 05:08:38;;;;;;;11.48;4.15;;;;;;;-142.43;100.00;63430.59;5000135;28;20046;-81
2024/01/05 05:11:05;;;;;;;13.00;4.13;;;;;;;-142.43;100.00;63430.59;5003414;28;20046;-80
2024/01/05 05:13:32;;;;;;;12.57;4.13;;;;;;;-142.43;100.00;63430.59;5003009;28;20145;-80
2024/01/05 05:16:01;;;;;;;11.15;4.30;;;;;;;-142.43;100.00;63430.59;5003427;28;20077;-81
2024/01/05 05:18:27;;;;;;;11.65;4.70;;;;;;;-142.43;100.00;63430.59;4998028;28;20200;-81
2024/01/05 05:20:54;;;;;;;13.35;4.05;;;;;;;-142.43;100.00;63430.59;4990356;28;20122;-82
2024/01/05 05:23:21;;;;;;;16.23;4.35;;;;;;;-142.43;100.00;63430.59;4998634;28;20049;-81
2024/01/05 05:25:48;;;;;;;15.02;4.13;;;;;;;-142.43;100.00;63430.59;4999194;28;20054;-80
2024/01/05 05:28:14;;;;;;;14.35;4.18;;;;;;;-142.43;100.00;63430.59;4998008;28;20081;-81
2024/01/05 05:30:41;;;;;;;9.98;3.83;;;;;;;-142.43;100.00;63430.59;4998414;28;20555;-81
2024/01/05 05:33:09;;;;;;;13.98;4.03;;;;;;;-142.43;100.00;63430.59;4997840;28;20078;-81
2024/01/05 05:35:35;;;;;;;13.25;4.32;;;;;;;-142.43;100.00;63430.59;4998335;28;20105;-82
2024/01/05 05:38:03;;;;;;;11.68;3.97;;;;;;;-142.43;100.00;63430.59;4998817;28;20077;-81
2024/01/05 05:40:29;;;;;;;13.60;4.63;;;;;;;-142.43;100.00;63430.59;4999490;28;20050;-82
2024/01/05 05:42:58;;;;;;;12.15;4.07;;;;;;;-142.43;100.00;63430.59;4998609;28;20053;-82
2024/01/05 05:45:26;;;;;;;12.40;4.28;;;;;;;-142.43;100.00;63430.59;5000853;28;20050;-81
2024/01/05 05:47:52;;;;;;;15.20;4.80;;;;;;;-142.43;100.00;63430.59;5001441;28;20074;-82
2024/01/05 05:50:20;;;;;;;14.15;5.85;;;;;;;-142.43;100.00;63430.59;5002424;28;20054;-81
2024/01/05 05:52:50;;;;;;;10.70;4.10;;;;;;;-142.43;100.00;63430.59;4997037;28;20503;-82
2024/01/05 05:55:16;;;;;;;9.65;4.00;;;;;;;-142.43;100.00;63430.59;4996841;28;20060;-82
2024/01/05 05:57:43;;;;;;;8.93;3.65;;;;;;;-142.43;100.00;63430.59;4997293;28;20119;-82
2024/01/05 06:00:11;;;;;;;9.57;4.30;;;;;;;-142.43;100.00;63430.59;4997063;28;20133;-82
2024/01/05 06:02:38;;;;;;;13.02;4.13;;;;;;;-142.43;100.00;63430.59;4996416;28;20046;-82
2024/01/05 06:05:05;;;;;;;10.35;4.05;;;;;;;-142.43;100.00;63430.59;4988377;28;20422;-82
2024/01/05 06:07:33;;;;;;;12.13;4.85;;;;;;;-142.43;100.00;63430.59;4995524;28;20129;-82
2024/01/05 06:10:00;;;;;;;7.53;3.80;;;;;;;-142.43;100.00;63430.59;4996333;28;20085;-82
2024/01/05 06:12:26;;;;;;;6.88;3.72;;;;;;;-142.43;100.00;63430.59;4995031;28;20168;-82
2024/01/05 06:14:53;;;;;;;13.20;3.95;;;;;;;-142.43;100.00;63430.59;4994285;28;20134;-81
2024/01/05 06:17:20;;;;;;;8.90;3.88;;;;;;;-142.43;100.00;63430.59;4990153;28;20555;-82
2024/01/05 06:19:46;;;;;;;10.90;4.10;;;;;;;-142.43;100.00;63430.59;4997542;28;20096;-82
2024/01/05 06:22:13;;;;;;;10.38;4.10;;;;;;;-142.43;100.00;63430.59;4993604;28;20125;-81
2024/01/05 06:24:41;;;;;;;8.93;3.60;;;;;;;-142.43;100.00;63430.59;4994831;28;20492;-82
2024/01/05 06:27:08;;;;;;;7.85;3.80;;;;;;;-142.43;100.00;63430.59;4996694;28;20078;-82
2024/01/05 06:29:34;;;;;;;11.73;4.50;;;;;;;-142.43;100.00;63430.59;4997141;28;20081;-82
2024/01/05 06:32:01;;;;;;;12.00;4.05;;;;;;;-142.43;100.00;63430.59;4996756;28;20077;-83
2024/01/05 06:34:28;;;;;;;14.18;4.85;;;;;;;-142.43;100.00;63430.59;4997837;28;20110;-83
2024/01/05 06:36:55;;;;;;;9.15;3.60;;;;;;;-142.43;100.00;63430.59;5000962;28;20502;-82
2024/01/05 06:39:21;;;;;;;11.43;4.07;;;;;;;-142.43;100.00;63430.59;5001577;28;20096;-81
2024/01/05 06:41:49;;;;;;;10.50;4.75;;;;;;;-142.43;100.00;63430.59;5000460;28;20050;-82
2024/01/05 06:44:16;;;;;;;8.88;3.90;;;;;;;-142.43;100.00;63430.59;5000041;28;20078;-83
2024/01/05 06:46:44;;;;;;;9.52;4.25;;;;;;;-142.43;100.00;63430.59;4993667;28;20137;-82
2024/01/05 06:49:11;;;;;;;6.05;3.53;;;;;;;-142.43;100.00;63430.59;5001091;28;20133;-82
2024/01/05 06:51:38;;;;;;;14.07;3.88;;;;;;;-142.43;100.00;63430.59;5000234;28;20042;-82
2024/01/05 06:54:05;;;;;;;13.00;4.18;;;;;;;-142.43;100.00;63430.59;4993704;28;20189;-82
2024/01/05 06:56:33;;;;;;;10.60;4.13;;;;;;;-142.43;100.00;63430.59;5000609;28;20153;-82
2024/01/05 06:59:01;;;;;;;12.13;3.88;;;;;;;-142.43;100.00;63430.59;5001313;28;20057;-81
2024/01/05 07:01:27;;;;;;;7.45;3.60;;;;;;;-142.43;100.00;63430.59;5000648;28;20117;-82
2024/01/05 07:03:54;;;;;;;5.63;3.13;;;;;;;-142.43;100.00;63430.59;5002528;28;20047;-80
2024/01/05 07:06:21;;;;;;;12.13;3.90;;;;;;;-142.43;100.00;63430.59;5003759;28;20496;-82
2024/01/05 07:08:47;;;;;;;9.38;3.20;;;;;;;-142.43;100.00;63430.59;5007491;28;20110;-81
2024/01/05 07:11:20;;;;;;;5.72;2.97;;;;;;;-142.43;100.00;63430.59;5014605;28;20057;-81
2024/01/05 07:13:46;;;;;;;6.20;3.00;;;;;;;-142.43;100.00;63430.59;5013538;28;20042;-81
2024/01/05 07:16:17;;;;;;;8.27;2.88;;;;;;;-142.43;100.00;63430.59;5011407;28;20058;-81
2024/01/05 07:18:44;;;;;;;6.93;3.20;;;;;;;-142.43;100.00;63430.59;5007436;28;20081;-80
2024/01/05 07:21:11;;;;;;;9.07;3.33;;;;;;;-142.43;100.00;63430.59;5001836;28;20053;-79
2024/01/05 07:23:37;;;;;;;7.18;3.20;;;;;;;-142.43;100.00;63430.59;5001336;28;20046;-80
2024/01/05 07:26:05;;;;;;;7.72;3.30;;;;;;;-142.43;100.00;63430.59;4992142;28;20081;-80
2024/01/05 07:28:31;;;;;;;9.50;2.83;;;;;;;-142.43;100.00;63430.59;4998650;28;20134;-81
2024/01/05 07:30:58;;;;;;;6.63;2.83;;;;;;;-142.43;100.00;63430.59;4999508;28;20058;-81
2024/01/05 07:33:26;;;;;;;12.63;2.92;;;;;;;-142.43;100.00;63430.59;4999070;28;20512;-80
2024/01/05 07:35:53;;;;;;;5.32;2.92;;;;;;;-142.43;100.00;63430.59;4998857;28;20141;-82
2024/01/05 07:38:19;;;;;;;8.70;2.83;;;;;;;-142.43;100.00;63430.59;5000253;28;20088;-81
2024/01/05 07:40:46;;;;;;;5.82;3.08;;;;;;;-142.43;100.00;63430.59;4999352;28;20062;-82
2024/01/05 07:43:13;;;;;;;4.85;2.67;;;;;;;-142.43;100.00;63430.59;5000141;28;20066;-82
2024/01/05 07:45:40;;;;;;;6.55;2.78;;;;;;;-142.43;100.00;63430.59;5000243;28;20073;-83
2024/01/05 07:48:07;;;;;;;8.73;2.45;;;;;;;-142.43;100.00;63430.59;5000486;28;20466;-84
2024/01/05 07:50:35;;;;;;;6.93;2.90;;;;;;;-142.43;100.00;63430.59;5001965;28;20124;-81
2024/01/05 07:53:02;;;;;;;5.53;2.67;;;;;;;-142.43;100.00;63430.59;5001619;28;20054;-81
2024/01/05 07:55:28;;;;;;;9.27;2.70;;;;;;;-142.43;100.00;63430.59;5000057;28;20081;-80
2024/01/05 07:57:55;;;;;;;5.65;3.00;;;;;;;-142.43;100.00;63430.59;5000404;28;20110;-82
2024/01/05 08:00:22;;;;;;;7.20;2.97;;;;;;;-142.43;100.00;63430.59;4996913;28;20081;-83
2024/01/05 08:02:50;;;;;;;5.07;2.80;;;;;;;-142.43;100.00;63430.59;4994729;28;20137;-82
2024/01/05 08:05:17;;;;;;;8.13;3.00;;;;;;;-142.43;100.00;63430.59;4995598;28;20046;-82
2024/01/05 08:07:45;;;;;;;9.93;3.33;;;;;;;-142.43;100.00;63430.59;5005237;28;20053;-82
2024/01/05 08:10:12;;;;;;;16.98;6.80;;;;;;;-142.43;100.00;63430.59;5000331;28;20110;-83
2024/01/05 08:12:39;;;;;;;8.75;3.67;;;;;;;-142.43;100.00;63430.59;4999257;28;20084;-82
2024/01/05 08:15:06;;;;;;;9.52;5.72;;;;;;;-142.43;100.00;63430.59;5000679;28;20428;-82
2024/01/05 08:17:33;;;;;;;9.77;5.50;;;;;;;-142.43;100.00;63430.59;4999520;28;20050;-81
2024/01/05 08:20:00;;;;;;;12.13;6.53;;;;;;;-142.43;100.00;63430.59;4991209;28;20082;-84
2024/01/05 08:22:26;;;;;;;10.80;5.22;;;;;;;-142.43;100.00;63430.59;4998180;28;20058;-83
2024/01/05 08:25:13;;;;;;;8.82;4.50;;;;;;;-142.43;100.00;63430.59;4999165;28;20133;-82
2024/01/05 08:27:44;;;;;;;6.13;3.13;;;;;;;-142.43;100.00;63430.59;4998433;28;20105;-84
2024/01/05 08:30:21;;;;;;;6.97;4.10;;;;;;;-142.43;100.00;63430.59;4993451;28;20129;-83
2024/01/05 08:32:51;;;;;;;10.90;5.28;;;;;;;-142.43;100.00;63430.59;4995972;28;20058;-84
2024/01/05 08:35:18;;;;;;;7.78;4.05;;;;;;;-142.43;100.00;63430.59;4995449;28;20069;-83
2024/01/05 08:37:52;;;;;;;5.50;3.00;;;;;;;-142.43;100.00;63430.59;4991923;28;20077;-83
2024/01/05 08:40:25;;;;;;;5.25;3.47;;;;;;;-142.43;100.00;63430.59;4996654;28;20058;-81
2024/01/05 08:42:52;;;;;;;3.78;3.00;;;;;;;-142.43;100.00;63430.59;4996048;28;20104;-81
2024/01/05 08:45:19;;;;;;;5.95;3.05;;;;;;;-142.43;100.00;63430.59;4997542;28;20070;-81
2024/01/05 08:47:46;;;;;;;6.32;3.47;;;;;;;-142.43;100.00;63430.59;4995163;28;20042;-82
2024/01/05 08:50:13;;;;;;;2.30;1.55;;;;;;;-142.43;100.00;63430.59;4995031;28;20057;-83
2024/01/05 08:52:40;;;;;;;2.88;2.08;;;;;;;-142.43;100.00;63430.59;4998111;28;20081;-82
2024/01/05 08:55:11;;;;;;;3.25;1.60;;;;;;;-142.43;100.00;63430.59;4997674;28;20038;-84
2024/01/05 08:57:42;;;;;;;1.33;0.77;;;;;;;-142.43;100.00;63430.59;4997986;28;20054;-83
2024/01/05 09:00:10;;;;;;;2.90;1.85;;;;;;;-142.43;100.00;63430.59;4998792;28;20058;-83
2024/01/05 09:02:36;;;;;;;4.10;2.08;;;;;;;-142.43;100.00;63430.59;5005290;28;20050;-83
2024/01/05 09:05:04;;;;;;;1.40;1.30;;;;;;;-142.43;100.00;63430.59;4982547;28;20046;-83
2024/01/05 09:07:31;;;;;;;3.85;1.20;;;;;;;-142.43;100.00;63430.59;5002231;28;20065;-83
2024/01/05 09:09:57;;;;;;;4.15;2.38;;;;;;;-142.43;100.00;63430.59;5000294;28;20066;-82
2024/01/05 09:12:24;;;;;;;2.63;1.20;;;;;;;-142.43;100.00;63430.59;5006053;28;20082;-83
2024/01/05 09:14:52;;;;;;;1.73;1.10;;;;;;;-142.43;100.00;63430.59;4997606;28;20544;-82
2024/01/05 09:17:19;;;;;;;4.60;1.60;;;;;;;-142.43;100.00;63430.59;5000357;28;20074;-82
2024/01/05 09:19:45;;;;;;;1.77;1.27;;;;;;;-142.43;100.00;63430.59;5000853;28;20038;-82
2024/01/05 09:22:12;;;;;;;2.05;1.38;;;;;;;-142.43;100.00;63430.59;5001491;28;20050;-82
2024/01/05 09:24:41;;;;;;;5.75;4.60;;;;;;;-142.43;100.00;63430.59;5005009;28;20070;-82
2024/01/05 09:27:10;;;;;;;6.03;2.28;;;;;;;-142.43;100.00;63430.59;4993844;28;20113;-82
2024/01/05 09:29:37;;;;;;;3.13;1.17;;;;;;;-142.43;100.00;63430.59;4998687;28;20118;-82
2024/01/05 09:32:06;;;;;;;2.00;1.08;;;;;;;-142.43;100.00;63430.59;4988515;28;20567;-82
2024/01/05 09:34:33;;;;;;;4.00;1.70;;;;;;;-142.43;100.00;63430.59;4985433;28;20058;-82
2024/01/05 09:36:59;;;;;;;1.48;1.15;;;;;;;-142.43;100.00;63430.59;4991359;28;20104;-82
2024/01/05 09:39:26;;;;;;;1.50;1.40;;;;;;;-142.43;100.00;63430.59;4987137;28;20059;-81
2024/01/05 09:41:53;;;;;;;1.65;1.23;;;;;;;-142.43;100.00;63430.59;4994742;28;20058;-82
2024/01/05 09:44:19;;;;;;;5.43;2.50;;;;;;;-142.43;100.00;63430.59;4993579;28;20501;-82
2024/01/05 09:46:48;;;;;;;3.65;1.55;;;;;;;-142.43;100.00;63430.59;4994632;28;20062;-82
2024/01/05 09:49:17;;;;;;;3.30;1.42;;;;;;;-142.43;100.00;63430.59;4992001;28;20093;-82
2024/01/05 09:51:44;;;;;;;1.17;0.70;;;;;;;-142.43;100.00;63430.59;4994109;28;20118;-82
2024/01/05 09:54:11;;;;;;;2.50;0.80;;;;;;;-142.43;100.00;63430.59;4999087;28;20508;-82
2024/01/05 09:56:45;;;;;;;1.40;1.05;;;;;;;-142.43;100.00;63430.59;4995201;28;20074;-81
2024/01/05 09:59:11;;;;;;;3.42;1.33;;;;;;;-142.43;100.00;63430.59;4989442;28;20058;-81
2024/01/05 10:01:41;;;;;;;3.03;1.25;;;;;;;-142.43;100.00;63430.59;4996249;28;20074;-81
2024/01/05 10:04:09;;;;;;;3.17;0.88;;;;;;;-142.43;100.00;63430.59;4995746;28;20678;-81
2024/01/05 10:06:37;;;;;;;1.15;1.00;;;;;;;-142.43;100.00;63430.59;4995540;28;20085;-82
2024/01/05 10:09:05;;;;;;;1.10;0.77;;;;;;;-142.43;100.00;63430.59;4995751;28;20508;-81
2024/01/05 10:11:34;;;;;;;2.15;0.90;;;;;;;-142.43;100.00;63430.59;4993876;28;20058;-82
2024/01/05 10:14:04;;;;;;;2.53;1.13;;;;;;;-142.43;100.00;63430.59;4996027;28;20536;-82
2024/01/05 10:16:36;;;;;;;2.88;2.25;;;;;;;-142.43;100.00;63430.59;4995914;28;20058;-82
2024/01/05 10:19:14;;;;;;;3.08;2.25;;;;;;;-142.43;100.00;63430.59;5008977;28;20038;-83
2024/01/05 10:21:43;;;;;;;1.63;1.10;;;;;;;-142.43;100.00;63430.59;5003475;28;20062;-82
2024/01/05 10:24:17;;;;;;;3.92;3.08;;;;;;;-142.43;100.00;63430.59;4998437;28;20046;-83
2024/01/05 10:26:43;;;;;;;3.70;2.17;;;;;;;-142.43;100.00;63430.59;5010387;28;20046;-81
2024/01/05 10:29:13;;;;;;;3.22;2.90;;;;;;;-142.43;100.00;63430.59;5005009;28;20129;-82
2024/01/05 10:31:40;;;;;;;2.42;1.42;;;;;;;-142.43;100.00;63430.59;4997150;28;20046;-82
2024/01/05 10:34:20;;;;;;;1.70;1.15;;;;;;;-142.43;100.00;63430.59;5001455;28;20302;-82
2024/01/05 10:36:48;;;;;;;2.15;1.48;;;;;;;-142.43;100.00;63430.59;4999024;28;20047;-82
2024/01/05 10:39:20;;;;;;;1.52;1.13;;;;;;;-142.43;100.00;63430.59;5000952;28;20316;-82
2024/01/05 10:41:47;;;;;;;1.92;1.10;;;;;;;-142.43;100.00;63430.59;4996737;28;20066;-82
2024/01/05 10:44:15;;;;;;;3.72;2.20;;;;;;;-142.43;100.00;63430.59;4999279;28;20101;-83
2024/01/05 10:46:42;;;;;;;14.50;5.93;;;;;;;-142.43;100.00;63430.59;4996699;28;20051;-82
2024/01/05 10:49:13;;;;;;;6.78;3.88;;;;;;;-142.43;100.00;63430.59;5000473;28;20058;-81
2024/01/05 10:51:41;;;;;;;3.55;2.47;;;;;;;-142.43;100.00;63430.59;4994369;28;20497;-82
2024/01/05 10:54:09;;;;;;;5.18;2.60;;;;;;;-142.43;100.00;63430.59;4989495;28;20440;-82
2024/01/05 10:56:42;;;;;;;5.30;2.80;;;;;;;-142.43;100.00;63430.59;4991131;28;20110;-82
2024/01/05 10:59:10;;;;;;;2.53;1.85;;;;;;;-142.43;100.00;63430.59;4988145;28;20142;-82
2024/01/05 11:01:38;;;;;;;3.08;1.67;;;;;;;-142.43;100.00;63430.59;4995347;28;20050;-82
2024/01/05 11:04:05;;;;;;;2.95;1.92;;;;;;;-142.43;100.00;63430.59;4989484;28;20165;-80
2024/01/05 11:06:35;;;;;;;2.50;1.70;;;;;;;-142.43;100.00;63430.59;4996086;28;20112;-82